createdAt,value
2018-12-21T00:00:55.508Z,0.26
2018-12-21T00:05:40.729Z,0.59
2018-12-21T00:10:25.755Z,-0.25
2018-12-21T00:15:11.075Z,0.47
2018-12-21T00:19:57.010Z,0.78
2018-12-21T00:24:42.383Z,-0.35
2018-12-21T00:29:27.285Z,-0.60
2018-12-21T00:34:18.542Z,0.14
2018-12-21T00:39:08.125Z,0.57
2018-12-21T00:44:04.933Z,1.14
2018-12-21T00:48:54.124Z,1.16
2018-12-21T00:53:38.471Z,1.32
2018-12-21T00:58:24.267Z,1.42
2018-12-21T01:03:10.114Z,0.87
2018-12-21T01:07:55.937Z,0.38
2018-12-21T01:12:40.693Z,1.41
2018-12-21T01:17:26.562Z,1.40
2018-12-21T01:22:11.084Z,1.09
2018-12-21T01:26:56.940Z,1.36
2018-12-21T01:31:41.437Z,1.64
2018-12-21T01:36:27.147Z,1.79
2018-12-21T01:41:12.607Z,1.47
2018-12-21T01:45:57.923Z,1.32
2018-12-21T01:50:43.979Z,1.11
2018-12-21T01:55:29.208Z,0.76
2018-12-21T02:00:14.065Z,1.70
2018-12-21T02:04:59.295Z,1.97
2018-12-21T02:09:45.903Z,1.34
2018-12-21T02:14:31.152Z,0.50
2018-12-21T02:19:16.124Z,0.29
2018-12-21T02:24:01.588Z,0.32
2018-12-21T02:28:47.521Z,1.03
2018-12-21T02:33:32.474Z,1.02
2018-12-21T02:38:17.864Z,0.45
2018-12-21T02:43:02.420Z,0.58
2018-12-21T02:47:51.141Z,0.30
2018-12-21T02:52:36.123Z,0.21
2018-12-21T02:57:22.413Z,0.88
2018-12-21T03:02:06.965Z,1.08
2018-12-21T03:06:52.861Z,0.61
2018-12-21T03:11:38.917Z,0.06
2018-12-21T03:16:24.598Z,0.33
2018-12-21T03:21:09.664Z,0.44
2018-12-21T03:25:55.375Z,1.15
2018-12-21T03:30:39.585Z,0.57
2018-12-21T03:35:25.516Z,-0.02
2018-12-21T03:40:11.877Z,-0.01
2018-12-21T03:44:57.140Z,-0.32
2018-12-21T03:49:41.619Z,0.31
2018-12-21T03:54:27.508Z,0.40
2018-12-21T03:59:12.751Z,-0.11
2018-12-21T04:03:58.762Z,0.34
2018-12-21T04:08:43.649Z,-0.36
2018-12-21T04:13:28.919Z,-0.15
2018-12-21T04:18:13.134Z,0.00
2018-12-21T04:22:58.921Z,-0.43
2018-12-21T04:27:45.486Z,-0.34
2018-12-21T04:32:30.634Z,-0.45
2018-12-21T04:37:16.041Z,-0.50
2018-12-21T04:42:01.459Z,-0.57
2018-12-21T04:46:48.189Z,-0.36
2018-12-21T04:51:32.945Z,-0.55
2018-12-21T04:56:18.720Z,-0.44
2018-12-21T05:01:05.496Z,-0.06
2018-12-21T05:05:50.729Z,-0.13
2018-12-21T05:10:36.609Z,0.15
2018-12-21T05:15:21.439Z,-0.01
2018-12-21T05:20:07.141Z,-0.15
2018-12-21T05:24:51.481Z,0.26
2018-12-21T05:29:39.566Z,-0.21
2018-12-21T05:34:25.325Z,-0.24
2018-12-21T05:39:11.110Z,-0.05
2018-12-21T05:43:56.280Z,0.26
2018-12-21T05:48:41.228Z,-0.45
2018-12-21T05:53:25.461Z,-0.34
2018-12-21T05:58:12.447Z,-0.37
2018-12-21T06:02:57.968Z,-0.11
2018-12-21T06:07:42.289Z,0.80
2018-12-21T06:12:27.812Z,0.03
2018-12-21T06:17:13.160Z,0.11
2018-12-21T06:21:59.939Z,-0.03
2018-12-21T06:26:44.886Z,0.43
2018-12-21T06:31:29.353Z,0.66
2018-12-21T06:36:14.606Z,0.12
2018-12-21T06:41:01.154Z,0.24
2018-12-21T06:45:48.587Z,1.04
2018-12-21T06:50:35.300Z,0.74
2018-12-21T06:55:19.563Z,0.19
2018-12-21T07:00:07.408Z,-0.06
2018-12-21T07:04:52.208Z,0.48
2018-12-21T07:09:40.728Z,1.29
2018-12-21T07:14:26.663Z,0.40
2018-12-21T07:19:12.743Z,0.42
2018-12-21T07:23:58.617Z,1.27
2018-12-21T07:28:43.236Z,0.89
2018-12-21T07:33:29.068Z,1.28
2018-12-21T07:38:14.844Z,1.73
2018-12-21T07:43:00.125Z,1.81
2018-12-21T07:47:46.030Z,0.71
2018-12-21T07:52:31.505Z,1.01
2018-12-21T07:57:18.425Z,1.89
2018-12-21T08:02:03.474Z,1.73
2018-12-21T08:06:49.168Z,2.18
2018-12-21T08:11:34.361Z,0.76
2018-12-21T08:16:19.781Z,1.98
2018-12-21T08:21:05.676Z,2.17
2018-12-21T08:25:51.661Z,1.33
2018-12-21T08:30:37.711Z,1.25
2018-12-21T08:35:21.895Z,1.95
2018-12-21T08:40:09.677Z,2.79
2018-12-21T08:44:55.480Z,1.77
2018-12-21T08:49:40.873Z,1.05
2018-12-21T08:54:25.566Z,0.86
2018-12-21T08:59:11.376Z,0.58
2018-12-21T09:03:57.082Z,0.87
2018-12-21T09:08:42.440Z,1.70
2018-12-21T09:13:27.332Z,1.47
2018-12-21T09:18:12.604Z,2.23
2018-12-21T09:22:57.917Z,3.44
2018-12-21T09:27:43.884Z,3.06
2018-12-21T09:32:29.401Z,3.13
2018-12-21T09:37:18.019Z,3.16
2018-12-21T09:42:02.319Z,3.26
2018-12-21T09:46:47.116Z,2.79
2018-12-21T09:51:32.465Z,2.90
2018-12-21T09:56:17.443Z,2.64
2018-12-21T10:01:03.299Z,3.77
2018-12-21T10:05:47.375Z,4.23
2018-12-21T10:10:32.169Z,4.00
2018-12-21T10:15:17.985Z,5.50
2018-12-21T10:20:03.384Z,4.68
2018-12-21T10:24:47.948Z,4.81
2018-12-21T10:29:36.984Z,4.11
2018-12-21T10:34:21.207Z,4.61
2018-12-21T10:39:09.489Z,4.74
2018-12-21T10:43:53.797Z,3.84
2018-12-21T10:48:39.930Z,4.88
2018-12-21T10:53:25.223Z,3.29
2018-12-21T10:58:17.066Z,4.03
2018-12-21T11:03:02.330Z,4.48
2018-12-21T11:07:46.908Z,5.17
2018-12-21T11:12:32.617Z,4.35
2018-12-21T11:17:16.714Z,4.25
2018-12-21T11:22:03.041Z,3.98
2018-12-21T11:26:48.440Z,4.87
2018-12-21T11:31:34.386Z,5.18
2018-12-21T11:36:19.564Z,5.34
2018-12-21T11:41:05.016Z,6.16
2018-12-21T11:45:50.524Z,5.49
2018-12-21T11:50:37.185Z,6.54
2018-12-21T11:55:23.036Z,6.21
2018-12-21T12:00:10.095Z,5.23
2018-12-21T12:04:54.277Z,4.37
2018-12-21T12:09:38.852Z,6.02
2018-12-21T12:14:24.324Z,4.38
2018-12-21T12:19:09.325Z,5.11
2018-12-21T12:23:55.180Z,4.50
2018-12-21T12:28:39.783Z,5.46
2018-12-21T12:33:25.916Z,5.54
2018-12-21T12:38:10.081Z,4.72
2018-12-21T12:42:54.515Z,4.39
2018-12-21T12:47:40.453Z,4.29
2018-12-21T12:52:25.664Z,4.55
2018-12-21T12:57:14.894Z,4.40
2018-12-21T13:01:59.334Z,4.56
2018-12-21T13:06:45.263Z,3.47
2018-12-21T13:11:29.818Z,4.46
2018-12-21T13:16:16.172Z,4.82
2018-12-21T13:21:00.480Z,4.20
2018-12-21T13:25:47.326Z,4.33
2018-12-21T13:30:32.662Z,4.68
2018-12-21T13:35:17.222Z,3.94
2018-12-21T13:40:03.806Z,4.58
2018-12-21T13:44:49.007Z,4.76
2018-12-21T13:49:33.557Z,3.91
2018-12-21T13:59:13.660Z,4.89
2018-12-21T14:03:59.707Z,4.36
2018-12-21T14:08:45.265Z,3.01
2018-12-21T14:13:31.202Z,3.83
2018-12-21T14:18:16.112Z,3.23
2018-12-21T14:23:01.573Z,3.54
2018-12-21T14:27:46.370Z,3.22
2018-12-21T14:32:32.253Z,3.81
2018-12-21T14:37:16.684Z,3.21
2018-12-21T14:42:02.596Z,3.69
2018-12-21T14:46:48.068Z,3.91
2018-12-21T14:51:34.510Z,3.58
2018-12-21T14:56:19.729Z,3.36
2018-12-21T15:05:55.693Z,2.80
2018-12-21T15:10:41.318Z,2.62
2018-12-21T15:15:25.825Z,2.13
2018-12-21T15:20:12.298Z,2.49
2018-12-21T15:24:56.979Z,2.24
2018-12-21T15:29:42.628Z,1.80
2018-12-21T15:34:27.754Z,1.82
2018-12-21T15:39:14.198Z,3.19
2018-12-21T15:43:59.672Z,2.88
2018-12-21T15:48:45.250Z,2.30
2018-12-21T15:53:30.128Z,2.17
2018-12-21T15:58:15.087Z,2.83
2018-12-21T16:03:01.017Z,2.10
2018-12-21T16:07:45.734Z,2.73
2018-12-21T16:12:31.644Z,2.01
2018-12-21T16:17:17.089Z,2.30
2018-12-21T16:22:03.046Z,2.58
2018-12-21T16:26:48.278Z,1.84
2018-12-21T16:31:34.197Z,1.89
2018-12-21T16:36:19.459Z,1.48
2018-12-21T16:41:04.407Z,2.23
2018-12-21T16:45:53.387Z,2.77
2018-12-21T16:50:39.037Z,2.44
2018-12-21T16:55:25.732Z,1.80
2018-12-21T17:00:12.996Z,2.36
2018-12-21T17:04:59.525Z,2.43
2018-12-21T17:09:43.869Z,1.38
2018-12-21T17:14:29.768Z,0.92
2018-12-21T17:19:18.843Z,0.78
2018-12-21T17:24:03.796Z,0.78
2018-12-21T17:28:50.164Z,0.88
2018-12-21T17:33:35.452Z,1.86
2018-12-21T17:38:20.586Z,1.70
2018-12-21T17:43:05.521Z,1.35
2018-12-21T17:47:53.901Z,2.04
2018-12-21T17:52:39.222Z,2.20
2018-12-21T17:57:24.742Z,1.36
2018-12-21T18:02:10.155Z,1.66
2018-12-21T18:06:56.653Z,1.31
2018-12-21T18:11:42.318Z,1.01
2018-12-21T18:16:29.170Z,1.45
2018-12-21T18:21:16.965Z,2.04
2018-12-21T18:26:07.117Z,2.17
2018-12-21T18:30:56.590Z,2.17
2018-12-21T18:35:41.762Z,1.99
2018-12-21T18:40:28.246Z,1.94
2018-12-21T18:45:14.002Z,1.11
2018-12-21T18:49:59.560Z,1.17
2018-12-21T18:54:46.382Z,0.69
2018-12-21T18:59:31.648Z,1.35
2018-12-21T19:04:16.822Z,2.18
2018-12-21T19:09:04.029Z,1.07
2018-12-21T19:13:48.204Z,0.76
2018-12-21T19:18:32.908Z,0.94
2018-12-21T19:23:19.194Z,1.81
2018-12-21T19:28:03.818Z,2.07
2018-12-21T19:32:50.512Z,2.00
2018-12-21T19:37:36.742Z,1.99
2018-12-21T19:42:24.647Z,1.70
2018-12-21T19:47:10.877Z,1.35
2018-12-21T19:51:57.768Z,2.04
2018-12-21T19:57:12.023Z,1.69
2018-12-21T20:01:57.528Z,1.60
2018-12-21T20:06:48.484Z,1.77
2018-12-21T20:11:32.976Z,2.24
2018-12-21T20:16:17.387Z,2.18
2018-12-21T20:21:02.713Z,1.92
2018-12-21T20:25:50.970Z,1.87
2018-12-21T20:30:35.610Z,2.35
2018-12-21T20:35:24.595Z,2.35
2018-12-21T20:40:11.690Z,2.58
2018-12-21T20:44:57.204Z,2.45
2018-12-21T20:49:48.676Z,2.40
2018-12-21T20:54:34.244Z,1.19
2018-12-21T20:59:22.413Z,1.27
2018-12-21T21:04:07.128Z,2.17
2018-12-21T21:08:53.082Z,1.94
2018-12-21T21:13:37.375Z,2.13
2018-12-21T21:18:26.938Z,1.76
2018-12-21T21:23:11.717Z,1.80
2018-12-21T21:27:58.179Z,2.08
2018-12-21T21:32:43.529Z,1.88
2018-12-21T21:37:28.852Z,1.96
2018-12-21T21:42:13.488Z,0.97
2018-12-21T21:46:59.402Z,1.42
2018-12-21T21:51:43.818Z,0.47
2018-12-21T21:56:30.293Z,0.23
2018-12-21T22:01:15.559Z,1.12
2018-12-21T22:05:59.941Z,1.56
2018-12-21T22:10:44.607Z,1.52
2018-12-21T22:15:30.341Z,1.64
2018-12-21T22:20:15.385Z,1.84
2018-12-21T22:25:00.921Z,1.65
2018-12-21T22:29:45.602Z,1.61
2018-12-21T22:34:31.097Z,1.42
2018-12-21T22:39:17.006Z,0.84
2018-12-21T22:44:01.221Z,1.10
2018-12-21T22:48:45.436Z,1.29
2018-12-21T22:53:30.197Z,0.78
2018-12-21T22:58:16.871Z,0.08
2018-12-21T23:03:01.152Z,0.67
2018-12-21T23:07:46.622Z,0.94
2018-12-21T23:12:31.221Z,1.16
2018-12-21T23:17:17.220Z,1.47
2018-12-21T23:22:02.469Z,1.47
2018-12-21T23:26:51.664Z,1.52
2018-12-21T23:31:36.101Z,1.49
2018-12-21T23:36:22.079Z,1.40
2018-12-21T23:41:07.325Z,1.48
2018-12-21T23:45:51.821Z,1.50
2018-12-21T23:50:37.620Z,1.65
2018-12-21T23:55:22.059Z,1.42
